createdAt,value
2019-05-28T00:02:14.563Z,10.40
2019-05-28T00:04:41.338Z,10.28
2019-05-28T00:07:08.078Z,10.07
2019-05-28T00:09:34.968Z,9.57
2019-05-28T00:12:01.656Z,8.80
2019-05-28T00:14:28.892Z,8.57
2019-05-28T00:16:55.541Z,10.67
2019-05-28T00:19:23.269Z,11.97
2019-05-28T00:21:51.847Z,8.93
2019-05-28T00:24:18.517Z,10.53
2019-05-28T00:26:45.461Z,9.83
2019-05-28T00:29:12.947Z,10.70
2019-05-28T00:31:39.825Z,9.23
2019-05-28T00:34:06.515Z,9.57
2019-05-28T00:36:33.238Z,8.97
2019-05-28T00:38:59.869Z,8.17
2019-05-28T00:41:26.963Z,9.53
2019-05-28T00:43:53.634Z,10.37
2019-05-28T00:46:20.286Z,9.73
2019-05-28T00:48:46.959Z,12.10
2019-05-28T00:51:13.954Z,12.13
2019-05-28T00:53:40.887Z,9.00
2019-05-28T00:56:07.750Z,9.57
2019-05-28T00:58:34.675Z,9.10
2019-05-28T01:01:01.350Z,9.43
2019-05-28T01:03:29.455Z,8.60
2019-05-28T01:05:56.092Z,9.60
2019-05-28T01:08:22.717Z,8.90
2019-05-28T01:10:49.706Z,10.33
2019-05-28T01:13:16.349Z,9.50
2019-05-28T01:15:42.983Z,9.33
2019-05-28T01:18:10.217Z,10.80
2019-05-28T01:20:37.026Z,10.33
2019-05-28T01:23:03.672Z,9.70
2019-05-28T01:25:31.035Z,8.90
2019-05-28T01:27:57.708Z,9.57
2019-05-28T01:30:24.396Z,10.50
2019-05-28T01:32:51.060Z,10.07
2019-05-28T01:35:17.851Z,11.37
2019-05-28T01:37:44.691Z,11.27
2019-05-28T01:40:11.379Z,10.97
2019-05-28T01:42:39.026Z,10.60
2019-05-28T01:45:05.697Z,12.57
2019-05-28T01:47:32.402Z,9.30
2019-05-28T01:49:58.995Z,11.93
2019-05-28T01:52:25.593Z,11.47
2019-05-28T01:54:52.490Z,11.28
2019-05-28T01:57:19.089Z,10.87
2019-05-28T01:59:45.721Z,9.17
2019-05-28T02:02:12.403Z,9.23
2019-05-28T02:04:39.245Z,8.87
2019-05-28T02:07:05.866Z,9.83
2019-05-28T02:09:32.491Z,10.37
2019-05-28T02:11:59.358Z,10.90
2019-05-28T02:14:25.975Z,10.20
2019-05-28T02:16:52.882Z,12.60
2019-05-28T02:19:19.694Z,10.43
2019-05-28T02:21:46.674Z,12.10
2019-05-28T02:24:13.512Z,10.20
2019-05-28T02:26:40.496Z,8.57
2019-05-28T02:29:07.360Z,8.33
2019-05-28T02:31:33.969Z,7.73
2019-05-28T02:34:00.858Z,7.77
2019-05-28T02:36:27.450Z,9.80
2019-05-28T02:38:54.624Z,7.28
2019-05-28T02:41:21.239Z,6.73
2019-05-28T02:43:48.043Z,7.77
2019-05-28T02:46:14.845Z,6.67
2019-05-28T02:48:41.451Z,7.27
2019-05-28T02:51:08.048Z,7.30
2019-05-28T02:53:34.815Z,8.13
2019-05-28T02:56:01.406Z,8.27
2019-05-28T02:58:28.002Z,7.63
2019-05-28T03:00:54.699Z,6.67
2019-05-28T03:03:21.340Z,6.60
2019-05-28T03:05:48.205Z,10.03
2019-05-28T03:08:15.089Z,7.27
2019-05-28T03:13:10.189Z,7.23
2019-05-28T03:15:37.142Z,7.60
2019-05-28T03:18:03.976Z,7.30
2019-05-28T03:20:30.634Z,8.13
2019-05-28T03:22:57.399Z,7.60
2019-05-28T03:25:24.357Z,6.30
2019-05-28T03:27:51.053Z,8.50
2019-05-28T03:30:17.719Z,7.73
2019-05-28T03:32:44.308Z,7.70
2019-05-28T03:35:10.914Z,8.53
2019-05-28T03:37:37.559Z,7.90
2019-05-28T03:40:04.595Z,8.30
2019-05-28T03:42:31.690Z,7.60
2019-05-28T03:45:00.226Z,8.73
2019-05-28T03:47:26.930Z,8.37
2019-05-28T03:49:53.505Z,7.93
2019-05-28T03:52:20.212Z,7.90
2019-05-28T03:54:47.147Z,9.80
2019-05-28T03:57:13.785Z,9.47
2019-05-28T03:59:40.534Z,10.23
2019-05-28T04:02:22.420Z,9.53
2019-05-28T04:04:35.761Z,11.03
2019-05-28T04:07:03.059Z,11.78
2019-05-28T04:09:33.736Z,13.03
2019-05-28T04:11:58.559Z,11.57
2019-05-28T04:14:25.742Z,11.63
2019-05-28T04:16:52.707Z,11.47
2019-05-28T04:19:19.324Z,12.67
2019-05-28T04:21:45.991Z,13.37
2019-05-28T04:24:12.671Z,11.77
2019-05-28T04:26:39.292Z,14.60
2019-05-28T04:29:06.188Z,14.20
2019-05-28T04:31:32.837Z,15.10
2019-05-28T04:33:59.479Z,13.17
2019-05-28T04:36:27.025Z,13.00
2019-05-28T04:38:53.931Z,14.73
2019-05-28T04:41:20.578Z,12.20
2019-05-28T04:43:48.710Z,15.23
2019-05-28T04:46:15.359Z,14.63
2019-05-28T04:48:41.929Z,16.53
2019-05-28T04:51:09.838Z,16.60
2019-05-28T04:53:36.504Z,13.63
2019-05-28T04:56:03.150Z,14.85
2019-05-28T04:58:30.164Z,13.18
2019-05-28T05:00:57.062Z,12.57
2019-05-28T05:03:23.654Z,14.83
2019-05-28T05:05:51.833Z,13.90
2019-05-28T05:08:18.438Z,14.33
2019-05-28T05:10:45.042Z,16.33
2019-05-28T05:13:12.131Z,15.30
2019-05-28T05:15:38.760Z,13.40
2019-05-28T05:18:05.629Z,15.80
2019-05-28T05:20:32.502Z,13.87
2019-05-28T05:22:59.371Z,14.23
2019-05-28T05:25:26.272Z,12.13
2019-05-28T05:27:53.518Z,13.83
2019-05-28T05:30:20.142Z,15.70
2019-05-28T05:32:46.981Z,15.40
2019-05-28T05:35:14.677Z,12.53
2019-05-28T05:37:41.296Z,12.50
2019-05-28T05:40:07.891Z,12.10
2019-05-28T05:42:35.081Z,10.37
2019-05-28T05:45:02.069Z,11.05
2019-05-28T05:47:28.713Z,11.70
2019-05-28T05:49:55.837Z,10.87
2019-05-28T05:52:22.432Z,10.57
2019-05-28T05:54:49.030Z,11.37
2019-05-28T05:57:15.921Z,15.27
2019-05-28T05:59:42.595Z,10.50
2019-05-28T06:02:09.461Z,12.03
2019-05-28T06:04:36.697Z,10.50
2019-05-28T06:07:03.391Z,10.03
2019-05-28T06:09:30.048Z,11.23
2019-05-28T06:11:57.276Z,10.83
2019-05-28T06:14:23.977Z,12.00
2019-05-28T06:16:50.755Z,9.27
2019-05-28T06:19:18.009Z,10.80
2019-05-28T06:21:44.655Z,10.87
2019-05-28T06:24:11.565Z,10.68
2019-05-28T06:26:38.165Z,14.10
2019-05-28T06:29:05.068Z,10.87
2019-05-28T06:31:31.662Z,14.27
2019-05-28T06:33:58.579Z,11.73
2019-05-28T06:36:25.247Z,11.27
2019-05-28T06:38:51.853Z,11.00
2019-05-28T06:41:19.118Z,16.17
2019-05-28T06:43:45.937Z,13.83
2019-05-28T06:46:12.858Z,15.13
2019-05-28T06:48:39.795Z,10.73
2019-05-28T06:51:06.591Z,12.80
2019-05-28T06:53:33.197Z,11.13
2019-05-28T06:56:00.702Z,16.23
2019-05-28T06:58:38.535Z,10.67
2019-05-28T07:00:56.914Z,11.57
2019-05-28T07:03:23.966Z,14.53
2019-05-28T07:06:05.525Z,12.90
2019-05-28T07:08:19.070Z,11.47
2019-05-28T07:10:57.250Z,10.43
2019-05-28T07:13:17.118Z,10.23
2019-05-28T07:15:44.058Z,10.13
2019-05-28T07:18:10.999Z,9.98
2019-05-28T07:20:37.632Z,10.57
2019-05-28T07:23:04.265Z,10.20
2019-05-28T07:25:30.897Z,9.27
2019-05-28T07:28:10.317Z,9.80
2019-05-28T07:30:26.143Z,9.23
2019-05-28T07:32:53.202Z,11.23
2019-05-28T07:35:19.900Z,9.17
2019-05-28T07:37:47.552Z,11.77
2019-05-28T07:40:30.217Z,9.60
2019-05-28T07:42:43.255Z,11.13
2019-05-28T07:45:11.180Z,9.80
2019-05-28T07:47:37.896Z,14.23
2019-05-28T07:50:04.874Z,12.35
2019-05-28T07:52:31.490Z,9.97
2019-05-28T07:54:58.545Z,10.27
2019-05-28T07:57:25.168Z,9.20
2019-05-28T07:59:52.123Z,10.07
2019-05-28T08:02:18.968Z,8.57
2019-05-28T08:04:47.593Z,9.43
2019-05-28T08:07:14.244Z,8.55
2019-05-28T08:09:42.732Z,7.77
2019-05-28T08:12:09.676Z,9.07
2019-05-28T08:14:36.317Z,7.73
2019-05-28T08:17:02.995Z,9.90
2019-05-28T08:19:29.690Z,6.80
2019-05-28T08:21:56.422Z,8.37
2019-05-28T08:24:23.431Z,6.57
2019-05-28T08:26:50.007Z,8.60
2019-05-28T08:29:16.888Z,5.83
2019-05-28T08:31:44.017Z,5.83
2019-05-28T08:34:10.979Z,7.78
2019-05-28T08:36:38.807Z,6.87
2019-05-28T08:39:05.930Z,6.87
2019-05-28T08:41:32.567Z,9.17
2019-05-28T08:43:59.479Z,8.37
2019-05-28T08:46:26.201Z,8.93
2019-05-28T08:48:53.094Z,8.87
2019-05-28T08:51:19.986Z,9.50
2019-05-28T08:53:46.791Z,8.43
2019-05-28T08:56:13.578Z,10.37
2019-05-28T08:58:40.196Z,9.17
2019-05-28T09:01:08.467Z,10.20
2019-05-28T09:03:35.177Z,7.53
2019-05-28T09:06:01.761Z,7.93
2019-05-28T09:08:39.173Z,7.87
2019-05-28T09:10:57.287Z,7.77
2019-05-28T09:13:23.927Z,5.80
2019-05-28T09:15:51.104Z,8.07
2019-05-28T09:18:17.749Z,6.83
2019-05-28T09:20:44.567Z,5.77
2019-05-28T09:23:11.544Z,6.20
2019-05-28T09:25:38.154Z,9.77
2019-05-28T09:28:05.741Z,6.37
2019-05-28T09:30:32.383Z,6.73
2019-05-28T09:32:59.086Z,5.83
2019-05-28T09:35:41.233Z,5.07
2019-05-28T09:37:54.701Z,5.63
2019-05-28T09:40:21.637Z,4.07
2019-05-28T09:42:48.221Z,5.10
2019-05-28T09:45:22.683Z,4.33
2019-05-28T09:47:43.767Z,4.67
2019-05-28T09:50:29.361Z,3.55
2019-05-28T09:52:53.577Z,3.63
2019-05-28T09:55:08.772Z,6.53
2019-05-28T09:57:46.877Z,5.47
2019-05-28T10:00:05.092Z,4.23
2019-05-28T10:02:31.679Z,3.90
2019-05-28T10:04:58.464Z,5.57
2019-05-28T10:07:25.297Z,3.47
2019-05-28T10:09:51.928Z,3.80
2019-05-28T10:12:18.882Z,4.47
2019-05-28T10:14:45.619Z,4.57
2019-05-28T10:17:12.521Z,5.57
2019-05-28T10:19:39.103Z,3.30
2019-05-28T10:22:06.536Z,3.00
2019-05-28T10:24:33.162Z,4.67
2019-05-28T10:26:59.731Z,7.10
2019-05-28T10:29:26.662Z,3.17
2019-05-28T10:31:53.249Z,5.00
2019-05-28T10:34:20.129Z,5.20
2019-05-28T10:36:46.876Z,4.80
2019-05-28T10:39:13.784Z,4.50
2019-05-28T10:41:40.689Z,8.00
2019-05-28T10:44:07.816Z,7.13
2019-05-28T10:46:34.406Z,3.70
2019-05-28T10:49:00.993Z,3.30
2019-05-28T10:51:27.622Z,4.00
2019-05-28T10:53:54.299Z,5.67
2019-05-28T10:56:21.058Z,3.43
2019-05-28T10:58:48.132Z,2.90
2019-05-28T11:01:14.737Z,3.37
2019-05-28T11:03:41.511Z,3.90
2019-05-28T11:06:08.547Z,3.37
2019-05-28T11:08:36.899Z,4.30
2019-05-28T11:11:03.585Z,3.00
2019-05-28T11:13:30.479Z,3.00
2019-05-28T11:15:57.135Z,2.95
2019-05-28T11:18:23.726Z,2.90
2019-05-28T11:20:51.592Z,2.42
2019-05-28T11:23:18.469Z,3.10
2019-05-28T11:25:45.076Z,2.30
2019-05-28T11:28:12.302Z,3.90
2019-05-28T11:30:39.246Z,2.03
2019-05-28T11:33:07.440Z,2.52
2019-05-28T11:35:34.125Z,4.80
2019-05-28T11:38:00.770Z,2.10
2019-05-28T11:42:55.682Z,4.40
2019-05-28T11:45:22.546Z,2.35
2019-05-28T11:47:50.888Z,2.10
2019-05-28T11:50:18.343Z,1.90
2019-05-28T11:55:20.648Z,1.95
2019-05-28T11:57:47.239Z,1.80
2019-05-28T12:00:13.936Z,3.25
2019-05-28T12:10:00.734Z,2.13
2019-05-28T12:12:27.825Z,2.00
2019-05-28T12:14:54.418Z,2.00
2019-05-28T12:17:40.064Z,5.20
2019-05-28T12:19:49.604Z,1.80
2019-05-28T12:22:16.274Z,2.00
2019-05-28T12:24:42.868Z,1.80
2019-05-28T12:27:10.740Z,1.93
2019-05-28T12:29:51.484Z,3.94
2019-05-28T12:32:09.372Z,1.85
2019-05-28T12:34:36.787Z,3.87
2019-05-28T12:37:04.334Z,1.73
2019-05-28T12:39:30.955Z,2.10
2019-05-28T12:42:03.223Z,2.13
2019-05-28T12:44:41.074Z,1.72
2019-05-28T12:46:55.443Z,2.05
2019-05-28T12:49:22.339Z,1.83
2019-05-28T12:51:49.369Z,2.25
2019-05-28T12:54:16.132Z,1.80
2019-05-28T12:56:43.316Z,1.57
2019-05-28T12:59:11.950Z,1.73
2019-05-28T13:01:39.633Z,4.03
2019-05-28T13:04:07.827Z,3.47
2019-05-28T13:06:34.511Z,1.50
2019-05-28T13:09:01.643Z,1.83
2019-05-28T13:11:29.092Z,1.40
2019-05-28T13:13:55.978Z,1.60
2019-05-28T13:16:23.057Z,1.90
2019-05-28T13:18:50.299Z,3.20
2019-05-28T13:21:19.710Z,2.40
2019-05-28T13:23:46.329Z,2.42
2019-05-28T13:26:14.932Z,1.98
2019-05-28T13:28:41.844Z,1.67
2019-05-28T13:31:09.635Z,2.37
2019-05-28T13:33:36.546Z,1.73
2019-05-28T13:38:47.723Z,2.60
2019-05-28T13:41:14.570Z,2.10
2019-05-28T13:43:42.885Z,2.83
2019-05-28T13:46:11.300Z,1.70
2019-05-28T13:48:38.229Z,2.30
2019-05-28T13:51:05.098Z,2.57
2019-05-28T13:53:31.958Z,1.70
2019-05-28T13:55:59.397Z,1.90
2019-05-28T13:58:26.252Z,1.30
2019-05-28T14:00:53.194Z,1.43
2019-05-28T14:03:19.794Z,1.77
2019-05-28T14:05:46.407Z,1.80
2019-05-28T14:08:13.289Z,1.37
2019-05-28T14:10:40.725Z,1.60
2019-05-28T14:13:07.604Z,3.80
2019-05-28T14:15:34.473Z,1.90
2019-05-28T14:18:01.913Z,2.60
2019-05-28T14:20:28.860Z,2.58
2019-05-28T14:22:56.028Z,1.80
2019-05-28T14:25:22.682Z,1.30
2019-05-28T14:27:49.613Z,2.83
2019-05-28T14:30:16.524Z,3.53
2019-05-28T14:32:43.381Z,3.40
2019-05-28T14:35:10.245Z,3.37
2019-05-28T14:37:37.171Z,1.50
2019-05-28T14:40:04.503Z,2.58
2019-05-28T14:42:31.398Z,1.55
2019-05-28T14:44:58.315Z,1.40
2019-05-28T14:47:25.237Z,1.25
2019-05-28T14:49:51.938Z,1.07
2019-05-28T14:52:19.190Z,0.88
2019-05-28T14:54:46.121Z,1.07
2019-05-28T14:57:12.714Z,0.88
2019-05-28T14:59:39.638Z,1.30
2019-05-28T15:02:06.490Z,0.90
2019-05-28T15:04:33.356Z,1.40
2019-05-28T15:07:00.230Z,1.70
2019-05-28T15:09:27.165Z,2.47
2019-05-28T15:11:54.209Z,1.62
2019-05-28T15:14:21.081Z,2.47
2019-05-28T15:16:48.007Z,2.22
2019-05-28T15:19:14.629Z,1.20
2019-05-28T15:21:41.515Z,1.20
2019-05-28T15:24:08.783Z,2.52
2019-05-28T15:29:20.396Z,3.03
2019-05-28T15:31:47.565Z,3.40
2019-05-28T15:34:14.451Z,1.70
2019-05-28T15:36:41.075Z,3.10
2019-05-28T15:39:08.832Z,2.10
2019-05-28T15:41:36.001Z,2.25
2019-05-28T15:44:02.596Z,1.70
2019-05-28T15:46:29.717Z,2.50
2019-05-28T15:48:56.586Z,1.70
2019-05-28T15:51:23.310Z,3.40
2019-05-28T15:53:50.327Z,3.74
2019-05-28T15:56:17.241Z,1.67
2019-05-28T15:58:44.066Z,1.97
2019-05-28T16:01:11.261Z,2.05
2019-05-28T16:03:38.149Z,1.70
2019-05-28T16:06:22.384Z,1.60
2019-05-28T16:08:49.266Z,1.57
2019-05-28T16:11:17.264Z,1.93
2019-05-28T16:13:44.127Z,2.63
2019-05-28T16:16:11.054Z,1.60
2019-05-28T16:18:37.974Z,1.90
2019-05-28T16:21:04.640Z,3.77
2019-05-28T16:23:31.588Z,1.60
2019-05-28T16:25:58.142Z,1.33
2019-05-28T16:28:25.382Z,1.65
2019-05-28T16:31:10.888Z,1.53
2019-05-28T16:33:20.618Z,1.70
2019-05-28T16:35:47.601Z,1.13
2019-05-28T16:38:14.519Z,1.03
2019-05-28T16:40:41.136Z,1.90
2019-05-28T16:43:07.987Z,1.43
2019-05-28T16:45:35.811Z,1.20
2019-05-28T16:48:02.467Z,1.27
2019-05-28T16:50:29.315Z,1.17
2019-05-28T16:52:56.194Z,1.10
2019-05-28T16:55:23.085Z,1.10
2019-05-28T16:57:49.720Z,1.20
2019-05-28T17:00:16.669Z,1.30
2019-05-28T17:02:43.533Z,1.45
2019-05-28T17:05:10.662Z,2.63
2019-05-28T17:07:38.202Z,1.50
2019-05-28T17:10:05.071Z,1.62
2019-05-28T17:12:31.674Z,1.70
2019-05-28T17:14:58.480Z,1.43
2019-05-28T17:17:25.110Z,1.60
2019-05-28T17:19:52.657Z,2.10
2019-05-28T17:22:20.685Z,2.00
2019-05-28T17:24:47.318Z,1.60
2019-05-28T17:27:14.044Z,1.43
2019-05-28T17:29:41.006Z,1.40
2019-05-28T17:32:07.589Z,1.50
2019-05-28T17:34:34.352Z,1.90
2019-05-28T17:37:01.352Z,1.80
2019-05-28T17:39:28.242Z,1.73
2019-05-28T17:41:55.321Z,1.63
2019-05-28T17:44:22.259Z,1.40
2019-05-28T17:46:49.159Z,1.70
2019-05-28T17:49:16.434Z,1.40
2019-05-28T17:51:43.044Z,2.50
2019-05-28T17:54:09.684Z,1.40
2019-05-28T17:56:37.377Z,1.65
2019-05-28T17:59:03.977Z,1.53
2019-05-28T18:01:30.587Z,1.40
2019-05-28T18:03:58.287Z,1.42
2019-05-28T18:06:24.957Z,1.40
2019-05-28T18:08:51.570Z,1.37
2019-05-28T18:11:19.017Z,3.10
2019-05-28T18:13:46.203Z,2.77
2019-05-28T18:16:13.067Z,1.52
2019-05-28T18:18:40.373Z,1.87
2019-05-28T18:21:07.228Z,1.23
2019-05-28T18:23:34.105Z,1.20
2019-05-28T18:26:01.543Z,1.40
2019-05-28T18:28:28.301Z,2.73
2019-05-28T18:30:57.367Z,1.37
2019-05-28T18:33:24.120Z,1.80
2019-05-28T18:35:51.074Z,1.80
2019-05-28T18:38:18.006Z,1.50
2019-05-28T18:40:44.940Z,1.37
2019-05-28T18:43:11.552Z,1.70
2019-05-28T18:45:38.201Z,1.80
2019-05-28T18:48:06.585Z,1.87
2019-05-28T18:50:35.901Z,1.85
2019-05-28T18:53:02.796Z,2.33
2019-05-28T18:55:29.417Z,2.17
2019-05-28T18:57:56.063Z,2.20
2019-05-28T19:24:49.224Z,2.55
2019-05-28T19:27:15.858Z,2.33
2019-05-28T19:29:42.926Z,3.10
2019-05-28T19:32:09.526Z,2.95
2019-05-28T19:37:02.809Z,4.00
2019-05-28T19:39:30.760Z,2.90
2019-05-28T19:41:57.402Z,2.70
2019-05-28T19:54:51.185Z,3.05
2019-05-28T19:57:18.074Z,6.80
2019-05-28T19:59:49.312Z,3.05
2019-05-28T20:02:18.536Z,2.55
2019-05-28T20:04:45.420Z,3.70
2019-05-28T20:07:12.244Z,2.15
2019-05-28T20:09:42.599Z,3.37
2019-05-28T20:12:12.663Z,3.33
2019-05-28T20:14:38.158Z,3.40
2019-05-28T20:17:06.570Z,2.22
2019-05-28T20:19:37.820Z,2.43
2019-05-28T20:22:04.522Z,3.27
2019-05-28T20:24:31.183Z,3.20
2019-05-28T20:26:57.776Z,2.57
2019-05-28T20:29:28.292Z,2.50
2019-05-28T20:31:55.360Z,5.87
2019-05-28T20:34:22.146Z,2.60
2019-05-28T20:39:15.556Z,3.10
2019-05-28T20:41:42.153Z,5.80
2019-05-28T20:46:36.647Z,2.57
2019-05-28T20:49:04.634Z,2.83
2019-05-28T20:51:31.274Z,1.90
2019-05-28T20:53:58.030Z,2.00
2019-05-28T20:56:24.661Z,2.00
2019-05-28T20:58:51.758Z,1.82
2019-05-28T21:01:20.249Z,3.80
2019-05-28T21:03:47.827Z,2.45
2019-05-28T21:06:14.519Z,1.83
2019-05-28T21:08:41.865Z,3.55
2019-05-28T21:11:08.474Z,2.33
2019-05-28T21:13:35.068Z,3.47
2019-05-28T21:16:01.922Z,1.63
2019-05-28T21:28:15.420Z,3.25
2019-05-28T21:30:47.672Z,1.73
2019-05-28T21:33:14.238Z,2.13
2019-05-28T21:35:41.193Z,2.03
2019-05-28T21:38:09.408Z,2.17
2019-05-28T21:40:37.333Z,2.73
2019-05-28T21:43:09.410Z,2.20
2019-05-28T21:45:32.484Z,4.73
2019-05-28T21:48:00.719Z,4.00
2019-05-28T21:50:27.581Z,2.03
2019-05-28T21:52:55.457Z,3.90
2019-05-28T21:55:22.080Z,2.02
2019-05-28T21:57:48.796Z,4.60
2019-05-28T22:00:16.167Z,2.20
2019-05-28T22:02:43.031Z,2.03
2019-05-28T22:05:10.365Z,5.10
2019-05-28T22:07:37.065Z,2.00
2019-05-28T22:10:04.256Z,2.90
2019-05-28T22:12:31.209Z,1.93
2019-05-28T22:14:58.379Z,2.00
2019-05-28T22:17:25.238Z,3.43
2019-05-28T22:19:52.396Z,3.30
2019-05-28T22:22:19.224Z,1.90
2019-05-28T22:24:45.830Z,3.03
2019-05-28T22:27:12.559Z,2.73
2019-05-28T22:29:40.759Z,3.08
2019-05-28T22:32:07.393Z,2.43
2019-05-28T22:34:33.989Z,4.10
2019-05-28T22:37:00.619Z,2.97
2019-05-28T22:39:29.551Z,4.00
2019-05-28T22:41:55.965Z,3.73
2019-05-28T22:44:23.154Z,1.70
2019-05-28T22:46:50.057Z,1.77
2019-05-28T22:49:17.222Z,1.82
2019-05-28T22:51:43.871Z,2.00
2019-05-28T22:54:11.702Z,1.97
2019-05-28T22:56:38.311Z,4.43
2019-05-28T22:59:06.472Z,1.70
2019-05-28T23:01:35.968Z,2.25
2019-05-28T23:04:03.064Z,4.87
2019-05-28T23:06:29.994Z,1.83
2019-05-28T23:08:57.164Z,2.65
2019-05-28T23:11:25.031Z,4.23
2019-05-28T23:13:51.679Z,4.53
2019-05-28T23:16:18.309Z,2.07
2019-05-28T23:18:45.456Z,2.22
2019-05-28T23:21:14.939Z,5.30
2019-05-28T23:23:41.557Z,2.80
2019-05-28T23:26:08.140Z,2.67
2019-05-28T23:28:34.802Z,3.73
2019-05-28T23:31:03.863Z,1.72
2019-05-28T23:33:30.575Z,1.67
2019-05-28T23:35:57.745Z,1.50
2019-05-28T23:38:24.607Z,3.40
2019-05-28T23:40:51.795Z,1.60
2019-05-28T23:43:18.403Z,2.25
2019-05-28T23:45:45.015Z,1.47
2019-05-28T23:48:14.139Z,1.70
2019-05-28T23:50:40.236Z,2.63
2019-05-28T23:53:07.661Z,1.07
2019-05-28T23:55:34.354Z,1.57
2019-05-28T23:58:01.111Z,3.20
